Time;durP1;ratioP1;P1;durP2;ratioP2;P2;SDS_P1;SDS_P2;PMS_P1;PMS_P2;Temp;Humidity;BMP_temperature;BMP_pressure;BME280_temperature;BME280_humidity;BME280_pressure;Samples;Min_cycle;Max_cycle;Signal;HPM_P1;HPM_P2
2022/12/09 00:01:08;;;;;;;5.80;4.20;;;;;;;;;;5015253;28;20215;-62
2022/12/09 00:03:36;;;;;;;5.77;4.43;;;;;;;;;;5003211;28;20410;-66
2022/12/09 00:06:11;;;;;;;4.47;4.07;;;;;;;;;;5003439;28;20767;-64
2022/12/09 00:08:38;;;;;;;7.67;5.57;;;;;;;;;;5003354;28;20198;-63
2022/12/09 00:11:07;;;;;;;6.07;4.97;;;;;;;;;;5000991;28;20206;-65
2022/12/09 00:13:34;;;;;;;7.20;5.40;;;;;;;;;;5012173;28;20221;-64
2022/12/09 00:16:09;;;;;;;5.30;4.80;;;;;;;;;;5000041;28;20241;-64
2022/12/09 00:18:36;;;;;;;7.27;4.60;;;;;;;;;;5000071;28;20268;-63
2022/12/09 00:21:31;;;;;;;5.90;5.00;;;;;;;;;;4996361;28;22606;-62
2022/12/09 00:23:59;;;;;;;8.83;6.00;;;;;;;;;;4996633;28;21141;-64
2022/12/09 00:26:27;;;;;;;6.50;5.20;;;;;;;;;;5024781;28;20203;-63
2022/12/09 00:28:56;;;;;;;5.83;5.00;;;;;;;;;;5015827;28;20808;-65
2022/12/09 00:31:26;;;;;;;6.30;4.50;;;;;;;;;;5017484;28;20245;-64
2022/12/09 00:33:56;;;;;;;10.30;7.50;;;;;;;;;;5012016;28;20347;-62
2022/12/09 00:36:24;;;;;;;10.13;7.43;;;;;;;;;;4996464;28;20292;-65
2022/12/09 00:38:51;;;;;;;10.73;8.27;;;;;;;;;;5008668;28;20287;-62
2022/12/09 00:41:19;;;;;;;10.80;7.77;;;;;;;;;;4998973;28;20261;-63
2022/12/09 00:43:46;;;;;;;12.60;6.53;;;;;;;;;;5006577;28;20920;-63
2022/12/09 00:46:14;;;;;;;10.03;7.23;;;;;;;;;;5018453;28;20226;-63
2022/12/09 00:48:44;;;;;;;10.70;8.03;;;;;;;;;;5025918;28;20222;-63
2022/12/09 00:51:13;;;;;;;12.87;7.40;;;;;;;;;;5024123;28;20242;-63
2022/12/09 00:53:41;;;;;;;10.00;7.30;;;;;;;;;;5008644;28;20210;-67
2022/12/09 00:56:08;;;;;;;10.60;7.23;;;;;;;;;;5001795;28;20213;-63
2022/12/09 00:58:36;;;;;;;10.20;7.13;;;;;;;;;;5001773;28;20210;-63
2022/12/09 01:01:03;;;;;;;9.50;6.47;;;;;;;;;;5023276;28;20241;-65
2022/12/09 01:03:31;;;;;;;10.37;7.23;;;;;;;;;;5010766;28;20337;-63
2022/12/09 01:05:59;;;;;;;9.83;7.07;;;;;;;;;;5030607;28;20205;-63
2022/12/09 01:08:27;;;;;;;10.97;7.23;;;;;;;;;;5029399;28;20651;-63
2022/12/09 01:10:54;;;;;;;9.60;6.83;;;;;;;;;;5058088;28;20209;-63
2022/12/09 01:13:21;;;;;;;10.03;7.07;;;;;;;;;;5033354;28;20233;-65
2022/12/09 01:15:49;;;;;;;8.93;6.70;;;;;;;;;;5050157;28;20726;-65
2022/12/09 01:18:16;;;;;;;10.10;6.97;;;;;;;;;;5015782;28;20764;-63
2022/12/09 01:20:44;;;;;;;10.17;6.73;;;;;;;;;;5004874;28;20215;-64
2022/12/09 01:23:11;;;;;;;17.13;9.30;;;;;;;;;;5012490;28;20284;-64
2022/12/09 01:25:39;;;;;;;14.47;9.43;;;;;;;;;;5003736;28;20227;-63
2022/12/09 01:28:06;;;;;;;28.67;17.43;;;;;;;;;;5008583;28;20198;-66
2022/12/09 01:30:34;;;;;;;31.47;18.37;;;;;;;;;;5019749;28;20206;-63
2022/12/09 01:33:02;;;;;;;52.73;27.93;;;;;;;;;;5014575;28;20198;-65
2022/12/09 01:35:30;;;;;;;32.33;18.73;;;;;;;;;;5009627;28;20226;-65
2022/12/09 01:37:58;;;;;;;18.00;11.07;;;;;;;;;;5010720;28;20194;-64
2022/12/09 01:40:25;;;;;;;15.67;10.07;;;;;;;;;;5023090;28;20271;-65
2022/12/09 01:42:53;;;;;;;24.63;14.90;;;;;;;;;;5029579;28;20214;-64
2022/12/09 01:45:22;;;;;;;34.43;20.00;;;;;;;;;;5029953;28;20232;-64
2022/12/09 01:48:13;;;;;;;45.83;24.70;;;;;;;;;;5027167;28;20249;-64
2022/12/09 01:50:43;;;;;;;42.53;24.17;;;;;;;;;;5043936;28;20214;-66
2022/12/09 01:53:11;;;;;;;47.30;26.50;;;;;;;;;;5030719;28;20225;-62
2022/12/09 01:55:39;;;;;;;43.73;24.00;;;;;;;;;;5005998;28;20261;-65
2022/12/09 01:58:07;;;;;;;34.03;19.03;;;;;;;;;;5011360;28;20233;-65
2022/12/09 02:00:34;;;;;;;28.40;15.93;;;;;;;;;;5017344;28;20213;-62
2022/12/09 02:03:03;;;;;;;29.87;16.50;;;;;;;;;;5024705;28;20210;-65
2022/12/09 02:05:30;;;;;;;26.70;15.73;;;;;;;;;;5008061;28;20607;-65
2022/12/09 02:07:58;;;;;;;16.83;11.10;;;;;;;;;;5029463;28;20253;-64
2022/12/09 02:10:26;;;;;;;17.20;11.50;;;;;;;;;;5001477;28;20743;-65
2022/12/09 02:12:57;;;;;;;17.40;11.40;;;;;;;;;;5010739;28;20654;-65
2022/12/09 02:15:30;;;;;;;16.30;10.43;;;;;;;;;;5022821;28;20467;-63
2022/12/09 02:18:00;;;;;;;15.57;10.20;;;;;;;;;;5007945;28;20236;-63
2022/12/09 02:20:38;;;;;;;14.20;9.50;;;;;;;;;;5012345;28;20296;-62
2022/12/09 02:23:11;;;;;;;12.60;9.30;;;;;;;;;;5013961;28;20264;-63
2022/12/09 02:25:42;;;;;;;11.40;8.13;;;;;;;;;;5010864;28;21015;-65
2022/12/09 02:28:29;;;;;;;12.63;8.60;;;;;;;;;;5027036;28;20218;-63
2022/12/09 02:31:32;;;;;;;11.87;7.53;;;;;;;;;;5009951;28;20214;-62
2022/12/09 02:34:19;;;;;;;10.50;7.50;;;;;;;;;;4931784;28;20669;-63
2022/12/09 02:36:52;;;;;;;11.27;7.33;;;;;;;;;;5022536;28;20209;-62
2022/12/09 02:39:22;;;;;;;9.07;6.80;;;;;;;;;;5016245;28;20229;-63
2022/12/09 02:41:51;;;;;;;11.43;7.23;;;;;;;;;;5006441;28;20956;-64
2022/12/09 02:44:20;;;;;;;10.23;7.30;;;;;;;;;;5014073;28;20340;-63
2022/12/09 02:46:48;;;;;;;9.53;7.10;;;;;;;;;;5022994;28;20211;-63
2022/12/09 02:49:15;;;;;;;11.87;8.47;;;;;;;;;;4996621;28;20887;-62
2022/12/09 02:51:44;;;;;;;9.77;7.37;;;;;;;;;;5010455;28;20212;-65
2022/12/09 02:54:13;;;;;;;10.27;7.70;;;;;;;;;;5021882;28;20231;-65
2022/12/09 02:56:44;;;;;;;10.87;7.33;;;;;;;;;;5008658;28;20214;-64
2022/12/09 02:59:12;;;;;;;11.77;8.07;;;;;;;;;;5013751;28;20605;-62
2022/12/09 03:01:48;;;;;;;11.00;7.70;;;;;;;;;;5011543;28;20222;-64
2022/12/09 03:04:19;;;;;;;11.17;7.80;;;;;;;;;;4998976;28;20250;-63
2022/12/09 03:06:50;;;;;;;11.50;8.57;;;;;;;;;;5029765;28;20657;-63
2022/12/09 03:09:40;;;;;;;14.37;9.10;;;;;;;;;;5029685;28;20210;-65
2022/12/09 03:12:08;;;;;;;12.90;8.40;;;;;;;;;;5027131;28;20222;-65
2022/12/09 03:14:41;;;;;;;13.33;8.93;;;;;;;;;;5014166;28;20226;-65
2022/12/09 03:17:17;;;;;;;12.57;8.43;;;;;;;;;;5020045;28;20328;-62
2022/12/09 03:19:48;;;;;;;11.40;8.73;;;;;;;;;;5030933;28;20218;-66
2022/12/09 03:22:18;;;;;;;11.23;8.27;;;;;;;;;;5017385;28;20237;-65
2022/12/09 03:25:04;;;;;;;9.27;7.80;;;;;;;;;;5018365;28;20727;-67
2022/12/09 03:27:40;;;;;;;11.83;8.40;;;;;;;;;;5006758;28;20313;-63
2022/12/09 03:30:08;;;;;;;11.83;8.13;;;;;;;;;;5027818;28;20206;-64
2022/12/09 03:32:37;;;;;;;11.07;8.07;;;;;;;;;;5026224;28;20226;-65
2022/12/09 03:35:10;;;;;;;13.13;8.33;;;;;;;;;;5009127;28;20312;-64
2022/12/09 03:37:40;;;;;;;13.50;8.50;;;;;;;;;;5006526;28;20211;-62
2022/12/09 03:40:10;;;;;;;11.63;8.50;;;;;;;;;;5004044;28;20665;-64
2022/12/09 03:42:52;;;;;;;11.03;8.73;;;;;;;;;;5036768;28;20209;-64
2022/12/09 03:45:22;;;;;;;14.53;9.20;;;;;;;;;;5023599;28;20730;-65
2022/12/09 03:47:50;;;;;;;11.70;8.33;;;;;;;;;;5015933;28;20210;-65
2022/12/09 03:50:21;;;;;;;11.33;8.40;;;;;;;;;;5036715;28;20644;-66
2022/12/09 03:52:51;;;;;;;13.13;9.53;;;;;;;;;;5034207;28;20286;-62
2022/12/09 03:55:26;;;;;;;13.43;9.50;;;;;;;;;;5005021;28;20230;-64
2022/12/09 03:57:56;;;;;;;13.87;9.10;;;;;;;;;;5008766;28;20297;-64
2022/12/09 04:00:23;;;;;;;14.27;9.40;;;;;;;;;;5026197;28;20207;-63
2022/12/09 04:02:52;;;;;;;12.70;8.90;;;;;;;;;;5008390;28;20649;-64
2022/12/09 04:05:19;;;;;;;11.17;8.50;;;;;;;;;;5025027;28;20365;-64
2022/12/09 04:07:50;;;;;;;14.00;8.60;;;;;;;;;;5008958;28;20211;-63
2022/12/09 04:10:17;;;;;;;11.70;8.03;;;;;;;;;;5010450;28;20206;-65
2022/12/09 04:12:45;;;;;;;13.93;9.03;;;;;;;;;;5002169;28;20198;-65
2022/12/09 04:15:12;;;;;;;12.97;8.97;;;;;;;;;;5010967;28;20390;-63
2022/12/09 04:17:40;;;;;;;11.40;8.07;;;;;;;;;;5003002;28;20221;-66
2022/12/09 04:20:08;;;;;;;13.70;9.47;;;;;;;;;;5006591;28;20301;-66
2022/12/09 04:22:37;;;;;;;19.23;11.67;;;;;;;;;;5007787;28;20295;-65
2022/12/09 04:25:04;;;;;;;15.53;10.30;;;;;;;;;;5025422;28;20229;-63
2022/12/09 04:27:33;;;;;;;18.70;11.50;;;;;;;;;;5018413;28;20222;-65
2022/12/09 04:30:01;;;;;;;12.63;9.53;;;;;;;;;;5010017;28;20205;-64
2022/12/09 04:32:30;;;;;;;17.13;10.13;;;;;;;;;;5010385;28;20211;-65
2022/12/09 04:34:58;;;;;;;16.63;10.00;;;;;;;;;;5005022;28;20241;-65
2022/12/09 04:37:25;;;;;;;14.30;9.83;;;;;;;;;;5007609;28;22511;-62
2022/12/09 04:39:53;;;;;;;15.10;10.57;;;;;;;;;;5028717;28;20238;-63
2022/12/09 04:42:20;;;;;;;18.17;11.23;;;;;;;;;;5004139;28;20911;-64
2022/12/09 04:44:47;;;;;;;16.70;10.37;;;;;;;;;;5007541;28;20305;-66
2022/12/09 04:47:15;;;;;;;15.33;10.80;;;;;;;;;;5006313;28;20301;-62
2022/12/09 04:49:43;;;;;;;15.90;10.67;;;;;;;;;;5009478;28;20527;-65
2022/12/09 04:52:10;;;;;;;16.77;10.13;;;;;;;;;;5010477;28;20204;-66
2022/12/09 04:54:38;;;;;;;18.60;11.07;;;;;;;;;;5009372;28;20242;-63
2022/12/09 04:57:05;;;;;;;17.50;11.27;;;;;;;;;;5031943;28;20264;-64
2022/12/09 04:59:32;;;;;;;16.27;11.00;;;;;;;;;;5006511;28;20211;-63
2022/12/09 05:02:01;;;;;;;15.33;10.10;;;;;;;;;;5010011;28;20301;-65
2022/12/09 05:04:29;;;;;;;18.40;11.30;;;;;;;;;;5009351;28;20720;-63
2022/12/09 05:06:57;;;;;;;17.07;10.57;;;;;;;;;;5019136;28;20212;-62
2022/12/09 05:09:24;;;;;;;16.27;11.13;;;;;;;;;;5028376;28;20707;-63
2022/12/09 05:11:52;;;;;;;15.70;11.03;;;;;;;;;;5033389;28;20218;-64
2022/12/09 05:14:20;;;;;;;15.50;10.60;;;;;;;;;;5049037;28;20326;-63
2022/12/09 05:16:48;;;;;;;14.23;10.80;;;;;;;;;;5031560;28;20210;-66
2022/12/09 05:19:16;;;;;;;15.10;11.00;;;;;;;;;;5008956;28;20887;-64
2022/12/09 05:21:44;;;;;;;16.90;11.43;;;;;;;;;;5024200;28;20302;-64
2022/12/09 05:24:12;;;;;;;18.63;11.77;;;;;;;;;;5006484;28;20227;-62
2022/12/09 05:26:40;;;;;;;14.90;11.50;;;;;;;;;;5010531;28;20223;-63
2022/12/09 05:29:08;;;;;;;18.67;12.30;;;;;;;;;;5000954;28;20820;-63
2022/12/09 05:31:35;;;;;;;17.03;11.27;;;;;;;;;;5011617;28;20209;-63
2022/12/09 05:34:03;;;;;;;14.27;10.90;;;;;;;;;;5006794;28;20240;-64
2022/12/09 05:36:30;;;;;;;18.57;11.97;;;;;;;;;;5008208;28;20226;-64
2022/12/09 05:38:59;;;;;;;18.27;11.90;;;;;;;;;;5002111;28;20267;-63
2022/12/09 05:41:26;;;;;;;16.63;11.60;;;;;;;;;;5007500;28;20216;-66
2022/12/09 05:43:54;;;;;;;18.60;11.90;;;;;;;;;;5021699;28;20235;-62
2022/12/09 05:46:22;;;;;;;24.97;15.47;;;;;;;;;;5024183;28;20200;-62
2022/12/09 05:48:49;;;;;;;23.43;14.33;;;;;;;;;;5024920;28;20224;-63
2022/12/09 05:51:21;;;;;;;18.97;12.77;;;;;;;;;;5028305;28;20206;-63
2022/12/09 05:53:49;;;;;;;22.40;14.17;;;;;;;;;;5011040;28;20233;-65
2022/12/09 05:56:20;;;;;;;20.50;13.17;;;;;;;;;;5013039;28;20240;-65
2022/12/09 05:58:48;;;;;;;23.77;14.33;;;;;;;;;;5004098;28;20217;-62
2022/12/09 06:01:16;;;;;;;30.83;16.53;;;;;;;;;;5009353;28;20584;-68
2022/12/09 06:03:45;;;;;;;25.33;15.57;;;;;;;;;;5005622;28;20224;-65
2022/12/09 06:06:15;;;;;;;26.30;15.13;;;;;;;;;;5009858;28;20261;-66
2022/12/09 06:08:44;;;;;;;30.70;17.67;;;;;;;;;;5020100;28;20856;-65
2022/12/09 06:11:14;;;;;;;29.57;18.00;;;;;;;;;;5008987;28;20564;-65
2022/12/09 06:13:42;;;;;;;30.70;16.80;;;;;;;;;;5004866;28;20214;-65
2022/12/09 06:16:10;;;;;;;27.83;16.53;;;;;;;;;;5023458;28;20388;-68
2022/12/09 06:18:38;;;;;;;26.63;16.17;;;;;;;;;;5010013;28;20225;-68
2022/12/09 06:21:07;;;;;;;22.77;15.23;;;;;;;;;;4997493;28;20214;-63
2022/12/09 06:23:35;;;;;;;27.07;15.77;;;;;;;;;;5021106;28;20217;-62
2022/12/09 06:26:03;;;;;;;25.17;16.43;;;;;;;;;;5000139;28;20237;-68
2022/12/09 06:28:31;;;;;;;28.93;17.27;;;;;;;;;;5004009;28;20205;-63
2022/12/09 06:30:59;;;;;;;26.37;16.73;;;;;;;;;;4992710;28;20210;-65
2022/12/09 06:33:27;;;;;;;27.50;17.60;;;;;;;;;;5017949;28;20292;-65
2022/12/09 06:36:14;;;;;;;24.03;15.73;;;;;;;;;;5009490;28;20210;-64
2022/12/09 06:38:41;;;;;;;23.50;16.17;;;;;;;;;;5003090;28;21229;-63
2022/12/09 06:41:10;;;;;;;24.40;16.00;;;;;;;;;;5012120;28;20313;-67
2022/12/09 06:43:38;;;;;;;26.83;17.33;;;;;;;;;;5005614;28;20217;-64
2022/12/09 06:46:13;;;;;;;28.30;18.07;;;;;;;;;;5013016;28;20237;-65
2022/12/09 06:48:45;;;;;;;26.10;17.30;;;;;;;;;;5010945;28;20590;-66
2022/12/09 06:51:13;;;;;;;25.90;17.53;;;;;;;;;;5006550;28;20821;-65
2022/12/09 06:53:41;;;;;;;28.23;17.67;;;;;;;;;;5006904;28;20206;-65
2022/12/09 06:56:10;;;;;;;27.23;17.20;;;;;;;;;;5009805;28;20797;-64
2022/12/09 06:58:43;;;;;;;27.73;17.20;;;;;;;;;;5016086;28;20226;-65
2022/12/09 07:01:13;;;;;;;29.33;18.73;;;;;;;;;;5015355;28;20210;-65
2022/12/09 07:03:45;;;;;;;30.90;17.53;;;;;;;;;;5014906;28;20230;-63
2022/12/09 07:06:33;;;;;;;25.73;17.63;;;;;;;;;;5015758;28;20739;-66
2022/12/09 07:09:02;;;;;;;29.20;18.43;;;;;;;;;;5029296;28;20210;-64
2022/12/09 07:11:30;;;;;;;27.67;17.93;;;;;;;;;;5012287;28;20203;-65
2022/12/09 07:13:58;;;;;;;27.37;17.97;;;;;;;;;;5014877;28;20224;-64
2022/12/09 07:16:25;;;;;;;27.27;18.27;;;;;;;;;;5011605;28;20223;-64
2022/12/09 07:18:53;;;;;;;31.53;18.73;;;;;;;;;;5014135;28;20275;-63
2022/12/09 07:21:23;;;;;;;31.60;19.43;;;;;;;;;;5011595;28;20218;-65
2022/12/09 07:23:52;;;;;;;28.63;18.43;;;;;;;;;;5015483;28;20289;-64
2022/12/09 07:26:20;;;;;;;33.90;21.20;;;;;;;;;;5018057;28;20775;-62
2022/12/09 07:28:49;;;;;;;38.17;24.20;;;;;;;;;;5017227;28;20238;-66
2022/12/09 07:31:24;;;;;;;36.40;22.67;;;;;;;;;;5000565;28;20333;-64
2022/12/09 07:33:53;;;;;;;37.00;21.10;;;;;;;;;;5007723;28;20233;-63
2022/12/09 07:36:23;;;;;;;38.83;22.13;;;;;;;;;;5008589;28;20298;-64
2022/12/09 07:38:57;;;;;;;34.53;21.47;;;;;;;;;;5010522;28;20321;-65
2022/12/09 07:41:25;;;;;;;36.57;22.23;;;;;;;;;;5009972;28;20686;-63
2022/12/09 07:43:52;;;;;;;37.60;22.77;;;;;;;;;;5050982;28;20230;-63
2022/12/09 07:46:21;;;;;;;36.97;22.70;;;;;;;;;;5048371;28;20226;-63
2022/12/09 07:48:49;;;;;;;37.17;22.70;;;;;;;;;;5035427;28;20822;-63
2022/12/09 07:51:17;;;;;;;41.87;24.67;;;;;;;;;;5030270;28;20213;-64
2022/12/09 07:53:45;;;;;;;41.13;25.10;;;;;;;;;;4997787;28;20273;-64
2022/12/09 07:56:15;;;;;;;39.57;24.43;;;;;;;;;;5012134;28;20209;-64
2022/12/09 07:58:46;;;;;;;36.43;23.03;;;;;;;;;;4997823;28;20315;-63
2022/12/09 08:01:15;;;;;;;36.57;22.80;;;;;;;;;;5014298;28;20227;-66
2022/12/09 08:03:43;;;;;;;37.90;23.20;;;;;;;;;;4998014;28;20220;-64
2022/12/09 08:06:12;;;;;;;35.73;22.63;;;;;;;;;;4995538;28;20296;-63
2022/12/09 08:08:40;;;;;;;35.97;22.17;;;;;;;;;;4992376;28;20502;-63
2022/12/09 08:11:09;;;;;;;35.70;22.53;;;;;;;;;;4988409;28;20221;-64
2022/12/09 08:13:37;;;;;;;37.80;23.37;;;;;;;;;;4989796;28;20217;-63
2022/12/09 08:16:06;;;;;;;35.33;22.63;;;;;;;;;;5011312;28;20239;-64
2022/12/09 08:18:34;;;;;;;34.50;22.00;;;;;;;;;;4986943;28;20208;-63
2022/12/09 08:21:07;;;;;;;33.90;21.57;;;;;;;;;;5008000;28;20221;-64
2022/12/09 08:23:34;;;;;;;36.20;22.93;;;;;;;;;;4980493;28;20341;-63
2022/12/09 08:26:02;;;;;;;31.90;20.67;;;;;;;;;;4993910;28;20305;-62
2022/12/09 08:28:30;;;;;;;35.20;21.13;;;;;;;;;;4987397;28;20311;-63
2022/12/09 08:30:59;;;;;;;36.33;22.57;;;;;;;;;;4991440;28;20210;-63
2022/12/09 08:33:26;;;;;;;32.03;20.53;;;;;;;;;;4997782;28;23775;-63
2022/12/09 08:35:54;;;;;;;31.20;20.37;;;;;;;;;;4991391;28;20238;-62
2022/12/09 08:38:21;;;;;;;30.43;19.90;;;;;;;;;;4991192;28;20210;-62
2022/12/09 08:40:49;;;;;;;33.37;21.03;;;;;;;;;;4994381;28;20386;-62
2022/12/09 08:43:16;;;;;;;33.00;21.40;;;;;;;;;;5010234;28;20215;-63
2022/12/09 08:45:44;;;;;;;31.43;19.93;;;;;;;;;;5017368;28;20238;-64
2022/12/09 08:48:12;;;;;;;29.33;19.87;;;;;;;;;;4999537;28;21177;-65
2022/12/09 08:50:40;;;;;;;30.70;19.87;;;;;;;;;;4989081;28;21473;-63
2022/12/09 08:53:07;;;;;;;30.67;19.70;;;;;;;;;;5029413;28;20198;-66
2022/12/09 08:55:38;;;;;;;30.03;19.70;;;;;;;;;;4993200;28;20983;-67
2022/12/09 08:58:05;;;;;;;30.63;20.20;;;;;;;;;;4994349;28;20309;-64
2022/12/09 09:00:33;;;;;;;30.83;20.47;;;;;;;;;;5012051;28;20217;-65
2022/12/09 09:03:00;;;;;;;30.30;20.10;;;;;;;;;;4999649;28;20718;-65
2022/12/09 09:05:28;;;;;;;28.60;18.63;;;;;;;;;;4993630;28;20238;-65
2022/12/09 09:07:57;;;;;;;29.77;19.93;;;;;;;;;;5003186;28;20211;-65
2022/12/09 09:10:24;;;;;;;30.93;20.13;;;;;;;;;;5005395;28;20206;-64
2022/12/09 09:12:52;;;;;;;29.47;19.77;;;;;;;;;;5021056;28;20211;-65
2022/12/09 09:15:21;;;;;;;29.50;18.80;;;;;;;;;;5009924;28;20273;-64
2022/12/09 09:17:52;;;;;;;30.97;20.00;;;;;;;;;;5023556;28;20210;-62
2022/12/09 09:20:20;;;;;;;27.17;18.50;;;;;;;;;;5017835;28;20218;-63
2022/12/09 09:22:48;;;;;;;26.40;18.27;;;;;;;;;;5001907;28;20214;-62
2022/12/09 09:25:16;;;;;;;27.87;18.53;;;;;;;;;;5007973;28;20240;-62
2022/12/09 09:27:44;;;;;;;29.07;19.00;;;;;;;;;;5025141;28;20672;-65
2022/12/09 09:30:12;;;;;;;27.30;19.20;;;;;;;;;;5000627;28;20233;-64
2022/12/09 09:32:40;;;;;;;29.70;19.23;;;;;;;;;;5007982;28;20256;-63
2022/12/09 09:35:10;;;;;;;28.10;18.53;;;;;;;;;;5003769;28;21106;-62
2022/12/09 09:37:38;;;;;;;28.60;18.27;;;;;;;;;;4989280;28;20790;-65
2022/12/09 09:40:07;;;;;;;31.73;19.00;;;;;;;;;;4984144;28;20614;-65
2022/12/09 09:42:37;;;;;;;30.73;20.73;;;;;;;;;;5011948;28;20359;-63
2022/12/09 09:45:06;;;;;;;28.00;18.27;;;;;;;;;;5020593;28;20226;-64
2022/12/09 09:47:39;;;;;;;26.10;17.73;;;;;;;;;;5013026;28;20691;-64
2022/12/09 09:50:19;;;;;;;25.93;17.10;;;;;;;;;;5028655;28;20298;-64
2022/12/09 09:52:49;;;;;;;25.47;17.00;;;;;;;;;;4999820;28;20236;-62
2022/12/09 09:55:18;;;;;;;25.67;17.70;;;;;;;;;;4993105;28;21141;-65
2022/12/09 09:57:48;;;;;;;27.73;17.50;;;;;;;;;;4991698;28;21401;-63
2022/12/09 10:00:21;;;;;;;28.07;18.37;;;;;;;;;;5008583;28;20245;-62
2022/12/09 10:03:02;;;;;;;26.77;18.13;;;;;;;;;;4984601;28;20209;-63
2022/12/09 10:05:32;;;;;;;27.23;17.90;;;;;;;;;;5007831;28;20233;-63
2022/12/09 10:08:19;;;;;;;26.40;17.63;;;;;;;;;;5006011;28;20255;-64
2022/12/09 10:10:54;;;;;;;24.53;16.73;;;;;;;;;;4998380;28;20693;-63
2022/12/09 10:13:22;;;;;;;24.67;17.37;;;;;;;;;;4991471;28;20220;-62
2022/12/09 10:15:59;;;;;;;23.63;16.70;;;;;;;;;;4991929;28;20241;-62
2022/12/09 10:18:36;;;;;;;26.43;16.43;;;;;;;;;;4983117;28;20312;-62
2022/12/09 10:21:15;;;;;;;24.83;17.07;;;;;;;;;;5003416;28;20213;-63
2022/12/09 10:23:43;;;;;;;25.50;16.57;;;;;;;;;;4998042;28;20202;-63
2022/12/09 10:26:29;;;;;;;24.20;16.53;;;;;;;;;;5001663;28;20727;-63
2022/12/09 10:29:17;;;;;;;27.83;17.43;;;;;;;;;;5012219;28;20596;-63
2022/12/09 10:31:45;;;;;;;22.83;15.10;;;;;;;;;;4977375;28;20208;-62
2022/12/09 10:34:14;;;;;;;22.67;15.50;;;;;;;;;;4993287;28;20229;-62
2022/12/09 10:36:43;;;;;;;23.30;15.70;;;;;;;;;;5007985;28;20218;-62
2022/12/09 10:39:19;;;;;;;24.23;16.73;;;;;;;;;;4996535;28;20769;-62
2022/12/09 10:44:38;;;;;;;25.43;17.80;;;;;;;;;;5028403;28;20229;-62
2022/12/09 10:47:18;;;;;;;26.67;17.50;;;;;;;;;;5008523;28;20706;-64
2022/12/09 10:49:47;;;;;;;26.30;17.10;;;;;;;;;;4995831;28;20219;-63
2022/12/09 10:52:21;;;;;;;26.70;17.87;;;;;;;;;;5000776;28;20252;-64
2022/12/09 10:54:48;;;;;;;25.27;16.37;;;;;;;;;;5013999;28;20740;-63
2022/12/09 10:57:16;;;;;;;20.20;14.70;;;;;;;;;;5020317;28;20220;-62
2022/12/09 10:59:56;;;;;;;25.43;16.53;;;;;;;;;;5018214;28;20210;-64
2022/12/09 11:02:26;;;;;;;30.80;18.53;;;;;;;;;;5010935;28;20237;-63
2022/12/09 11:04:54;;;;;;;26.37;17.83;;;;;;;;;;5007092;28;20509;-62
2022/12/09 11:07:23;;;;;;;25.00;16.33;;;;;;;;;;5013863;28;20226;-62
2022/12/09 11:10:12;;;;;;;25.03;17.17;;;;;;;;;;4992848;28;20217;-62
2022/12/09 11:12:40;;;;;;;24.23;16.50;;;;;;;;;;5016693;28;20299;-62
2022/12/09 11:15:11;;;;;;;25.60;16.97;;;;;;;;;;5008689;28;20348;-63
2022/12/09 11:17:42;;;;;;;22.33;15.17;;;;;;;;;;5005917;28;20211;-62
2022/12/09 11:20:20;;;;;;;22.70;15.97;;;;;;;;;;5003005;28;20225;-64
2022/12/09 11:23:02;;;;;;;23.57;15.47;;;;;;;;;;5009503;28;20326;-64
2022/12/09 11:25:32;;;;;;;22.37;14.63;;;;;;;;;;5022306;28;20734;-61
2022/12/09 11:28:16;;;;;;;21.43;14.57;;;;;;;;;;5004787;28;20211;-63
2022/12/09 11:30:52;;;;;;;20.50;15.07;;;;;;;;;;5015465;28;20272;-62
2022/12/09 11:33:41;;;;;;;21.67;15.93;;;;;;;;;;5001982;28;23348;-62
2022/12/09 11:36:17;;;;;;;23.90;16.20;;;;;;;;;;4998075;28;20337;-61
2022/12/09 11:38:47;;;;;;;20.63;14.33;;;;;;;;;;5006878;28;20220;-62
2022/12/09 11:44:12;;;;;;;23.13;14.50;;;;;;;;;;5022469;28;20956;-61
2022/12/09 11:46:40;;;;;;;26.27;16.20;;;;;;;;;;5008936;28;20232;-63
2022/12/09 11:49:15;;;;;;;22.83;15.73;;;;;;;;;;5011019;28;20211;-61
2022/12/09 11:52:18;;;;;;;24.10;15.63;;;;;;;;;;5009411;28;20225;-62
2022/12/09 11:55:04;;;;;;;25.67;17.10;;;;;;;;;;4949405;28;20243;-63
2022/12/09 11:57:37;;;;;;;26.50;16.63;;;;;;;;;;5021481;28;20875;-62
2022/12/09 12:00:14;;;;;;;26.53;16.97;;;;;;;;;;5042210;28;20237;-64
2022/12/09 12:02:54;;;;;;;28.77;18.20;;;;;;;;;;5044391;28;20209;-63
2022/12/09 12:05:41;;;;;;;26.93;18.20;;;;;;;;;;5013168;28;20739;-63
2022/12/09 12:08:15;;;;;;;46.83;26.37;;;;;;;;;;5008697;28;22665;-61
2022/12/09 12:11:06;;;;;;;30.33;20.07;;;;;;;;;;5005544;28;20209;-63
2022/12/09 12:13:44;;;;;;;26.03;17.87;;;;;;;;;;4980271;28;20621;-64
2022/12/09 12:16:25;;;;;;;27.83;18.37;;;;;;;;;;5015823;28;21048;-63
2022/12/09 12:19:13;;;;;;;26.87;17.47;;;;;;;;;;5003057;28;20385;-61
2022/12/09 12:21:40;;;;;;;26.83;17.33;;;;;;;;;;5003766;28;20210;-61
2022/12/09 12:24:23;;;;;;;28.43;18.03;;;;;;;;;;5024676;28;20447;-64
2022/12/09 12:27:08;;;;;;;30.07;18.57;;;;;;;;;;5025384;28;20222;-61
2022/12/09 12:29:35;;;;;;;25.90;17.97;;;;;;;;;;5009302;28;20217;-62
2022/12/09 12:32:09;;;;;;;26.40;17.17;;;;;;;;;;5019916;28;20281;-61
2022/12/09 12:34:43;;;;;;;28.43;17.77;;;;;;;;;;5026931;28;20310;-62
2022/12/09 12:37:10;;;;;;;25.10;16.93;;;;;;;;;;5008747;28;20288;-63
2022/12/09 12:39:37;;;;;;;24.50;16.70;;;;;;;;;;5014777;28;20213;-62
2022/12/09 12:42:14;;;;;;;26.33;16.50;;;;;;;;;;5009920;28;20958;-62
2022/12/09 12:47:46;;;;;;;27.97;17.67;;;;;;;;;;5022225;28;20230;-61
2022/12/09 12:50:41;;;;;;;26.73;17.63;;;;;;;;;;5024991;28;20202;-62
2022/12/09 12:53:37;;;;;;;26.00;17.23;;;;;;;;;;4992451;28;20759;-62
2022/12/09 12:56:07;;;;;;;23.57;16.60;;;;;;;;;;4979051;28;20235;-62
2022/12/09 12:58:43;;;;;;;27.83;17.63;;;;;;;;;;5009138;28;20297;-64
2022/12/09 13:01:29;;;;;;;24.83;16.97;;;;;;;;;;5008832;28;20209;-62
2022/12/09 13:04:20;;;;;;;28.27;19.17;;;;;;;;;;5014585;28;20226;-63
2022/12/09 13:06:55;;;;;;;31.10;18.63;;;;;;;;;;5021843;28;20692;-63
2022/12/09 13:09:33;;;;;;;33.27;20.60;;;;;;;;;;5042944;28;20445;-63
2022/12/09 13:15:17;;;;;;;31.00;19.90;;;;;;;;;;5046178;28;20321;-63
2022/12/09 13:17:46;;;;;;;29.50;18.13;;;;;;;;;;5025806;28;20732;-62
2022/12/09 13:20:25;;;;;;;27.70;18.93;;;;;;;;;;5009692;28;20220;-63
2022/12/09 13:22:57;;;;;;;27.03;17.43;;;;;;;;;;5028227;28;20288;-62
2022/12/09 13:25:43;;;;;;;32.37;19.17;;;;;;;;;;5027753;28;20592;-63
2022/12/09 13:28:16;;;;;;;25.23;16.93;;;;;;;;;;5008229;28;20325;-62
2022/12/09 13:30:56;;;;;;;24.17;15.33;;;;;;;;;;5027848;28;20214;-64
2022/12/09 13:33:32;;;;;;;24.07;15.33;;;;;;;;;;5024578;28;20755;-64
2022/12/09 13:36:06;;;;;;;24.00;16.50;;;;;;;;;;5019021;28;20218;-62
2022/12/09 13:38:38;;;;;;;29.87;17.53;;;;;;;;;;4999624;28;20292;-62
2022/12/09 13:44:21;;;;;;;22.90;15.47;;;;;;;;;;5033350;28;20222;-62
2022/12/09 13:46:49;;;;;;;24.20;15.90;;;;;;;;;;5023884;28;20237;-62
2022/12/09 13:49:23;;;;;;;25.43;15.53;;;;;;;;;;5036055;28;20252;-63
2022/12/09 13:51:52;;;;;;;20.83;14.30;;;;;;;;;;5027316;28;20205;-61
2022/12/09 13:54:24;;;;;;;24.97;16.77;;;;;;;;;;5028335;28;20695;-62
2022/12/09 13:57:11;;;;;;;26.33;16.53;;;;;;;;;;5012547;28;20212;-61
2022/12/09 13:59:50;;;;;;;24.57;15.50;;;;;;;;;;5009264;28;20298;-62
2022/12/09 14:02:27;;;;;;;28.73;18.07;;;;;;;;;;5008613;28;20297;-62
2022/12/09 14:04:58;;;;;;;23.33;15.10;;;;;;;;;;5010699;28;20352;-64
2022/12/09 14:07:40;;;;;;;24.37;14.60;;;;;;;;;;5003033;28;20233;-62
2022/12/09 14:10:27;;;;;;;22.03;14.80;;;;;;;;;;5006096;28;20206;-62
2022/12/09 14:12:54;;;;;;;21.60;14.20;;;;;;;;;;5023700;28;20314;-62
2022/12/09 14:15:27;;;;;;;22.20;14.53;;;;;;;;;;5018971;28;20387;-61
2022/12/09 14:17:59;;;;;;;24.73;15.13;;;;;;;;;;5002619;28;20297;-62
2022/12/09 14:20:34;;;;;;;21.40;13.53;;;;;;;;;;5010196;28;20760;-62
2022/12/09 14:23:11;;;;;;;20.60;13.50;;;;;;;;;;5008562;28;20675;-61
2022/12/09 14:25:44;;;;;;;19.37;13.50;;;;;;;;;;5008263;28;20240;-61
2022/12/09 14:28:25;;;;;;;20.67;13.33;;;;;;;;;;5021339;28;20229;-62
2022/12/09 14:30:54;;;;;;;20.20;13.20;;;;;;;;;;5005659;28;20265;-63
2022/12/09 14:33:23;;;;;;;21.43;13.10;;;;;;;;;;5022796;28;20761;-62
2022/12/09 14:35:53;;;;;;;19.17;12.23;;;;;;;;;;5003138;28;20261;-61
2022/12/09 14:38:30;;;;;;;23.07;14.00;;;;;;;;;;5006017;28;20625;-63
2022/12/09 14:41:27;;;;;;;19.77;12.23;;;;;;;;;;5023041;28;20520;-62
2022/12/09 14:44:01;;;;;;;19.60;12.77;;;;;;;;;;4991254;28;20232;-61
2022/12/09 14:46:33;;;;;;;19.80;13.20;;;;;;;;;;4998003;28;20211;-61
2022/12/09 14:49:12;;;;;;;20.63;13.23;;;;;;;;;;5006990;28;20667;-61
2022/12/09 14:51:48;;;;;;;21.77;14.60;;;;;;;;;;5006444;28;20494;-62
2022/12/09 14:54:19;;;;;;;21.60;13.80;;;;;;;;;;5003415;28;20261;-62
2022/12/09 14:56:48;;;;;;;23.20;15.30;;;;;;;;;;5022048;28;20543;-62
2022/12/09 14:59:26;;;;;;;27.40;17.40;;;;;;;;;;5032915;28;20301;-64
2022/12/09 15:01:53;;;;;;;29.27;18.70;;;;;;;;;;5005521;28;20775;-62